Terminal Aerodrome Forecast
Issued by NWS

Home | Current Version | Previous Version | Text Only | Print | Product List | Glossary On
Versions: 1 2 3 4 5 6 7 8 9 10 11 12 13 14 15
000
FTUS43 KILX 222320
TAFCMI
TAF
KCMI 222320Z 2300/2324 27006KT P6SM SCT200
     FM230300 09004KT P6SM OVC120
     FM231700 17010KT P6SM SCT050 BKN120=

USA.gov is the U.S. government's official web portal to all federal, state and local government web resources and services.